sensor_id;sensor_type;location;lat;lon;timestamp;pressure;altitude;pressure_sealevel;temperature;humidity
40384;BME280;26097;42.366;23.818;2022-11-14T00:02:22;95215.47;;;-0.05;100.00
40384;BME280;26097;42.366;23.818;2022-11-14T00:05:23;95209.47;;;-0.04;100.00
40384;BME280;26097;42.366;23.818;2022-11-14T00:08:23;95208.56;;;0.00;100.00
40384;BME280;26097;42.366;23.818;2022-11-14T00:11:26;95213.59;;;0.06;100.00
40384;BME280;26097;42.366;23.818;2022-11-14T00:14:27;95204.97;;;0.09;100.00
40384;BME280;26097;42.366;23.818;2022-11-14T00:17:27;95197.47;;;-0.01;100.00
40384;BME280;26097;42.366;23.818;2022-11-14T00:20:27;95191.44;;;0.02;100.00
40384;BME280;26097;42.366;23.818;2022-11-14T00:23:28;95196.53;;;0.05;100.00
40384;BME280;26097;42.366;23.818;2022-11-14T00:26:29;95191.53;;;-0.04;100.00
40384;BME280;26097;42.366;23.818;2022-11-14T00:29:29;95193.31;;;-0.08;100.00
40384;BME280;26097;42.366;23.818;2022-11-14T00:32:30;95183.81;;;-0.03;100.00
40384;BME280;26097;42.366;23.818;2022-11-14T00:35:30;95191.69;;;-0.13;100.00
40384;BME280;26097;42.366;23.818;2022-11-14T00:38:31;95174.69;;;-0.18;100.00
40384;BME280;26097;42.366;23.818;2022-11-14T00:41:31;95179.69;;;-0.11;100.00
40384;BME280;26097;42.366;23.818;2022-11-14T00:44:31;95175.56;;;-0.20;100.00
40384;BME280;26097;42.366;23.818;2022-11-14T00:47:32;95178.97;;;-0.20;100.00
40384;BME280;26097;42.366;23.818;2022-11-14T00:50:32;95170.25;;;-0.08;100.00
40384;BME280;26097;42.366;23.818;2022-11-14T00:53:33;95157.50;;;-0.12;100.00
40384;BME280;26097;42.366;23.818;2022-11-14T00:56:33;95161.03;;;-0.20;100.00
40384;BME280;26097;42.366;23.818;2022-11-14T00:59:33;95157.56;;;-0.16;100.00
40384;BME280;26097;42.366;23.818;2022-11-14T01:02:34;95156.53;;;-0.05;100.00
40384;BME280;26097;42.366;23.818;2022-11-14T01:05:43;95158.34;;;-0.12;100.00
40384;BME280;26097;42.366;23.818;2022-11-14T01:08:43;95156.69;;;-0.16;100.00
40384;BME280;26097;42.366;23.818;2022-11-14T01:11:44;95156.66;;;-0.13;100.00
40384;BME280;26097;42.366;23.818;2022-11-14T01:14:44;95158.31;;;-0.10;100.00
40384;BME280;26097;42.366;23.818;2022-11-14T01:17:45;95153.91;;;-0.02;100.00
40384;BME280;26097;42.366;23.818;2022-11-14T01:20:46;95157.38;;;-0.06;100.00
40384;BME280;26097;42.366;23.818;2022-11-14T01:23:47;95148.19;;;-0.17;100.00
40384;BME280;26097;42.366;23.818;2022-11-14T01:26:47;95152.44;;;-0.17;100.00
40384;BME280;26097;42.366;23.818;2022-11-14T01:29:48;95141.13;;;-0.05;100.00
40384;BME280;26097;42.366;23.818;2022-11-14T01:32:48;95137.56;;;0.05;100.00
40384;BME280;26097;42.366;23.818;2022-11-14T01:35:48;95136.81;;;0.00;100.00
40384;BME280;26097;42.366;23.818;2022-11-14T01:38:52;95135.25;;;-0.10;100.00
40384;BME280;26097;42.366;23.818;2022-11-14T01:41:53;95125.84;;;-0.10;100.00
40384;BME280;26097;42.366;23.818;2022-11-14T01:44:54;95124.13;;;-0.08;100.00
40384;BME280;26097;42.366;23.818;2022-11-14T01:47:55;95119.75;;;-0.04;100.00
40384;BME280;26097;42.366;23.818;2022-11-14T01:51:00;95125.84;;;-0.10;100.00
40384;BME280;26097;42.366;23.818;2022-11-14T01:54:07;95117.31;;;-0.09;100.00
40384;BME280;26097;42.366;23.818;2022-11-14T01:57:08;95110.47;;;-0.10;100.00
40384;BME280;26097;42.366;23.818;2022-11-14T02:00:11;95117.31;;;-0.09;100.00
40384;BME280;26097;42.366;23.818;2022-11-14T02:03:13;95113.88;;;-0.09;100.00
40384;BME280;26097;42.366;23.818;2022-11-14T02:06:15;95112.19;;;-0.09;100.00
40384;BME280;26097;42.366;23.818;2022-11-14T02:09:17;95110.44;;;-0.08;100.00
40384;BME280;26097;42.366;23.818;2022-11-14T02:12:18;95107.88;;;-0.08;100.00
40384;BME280;26097;42.366;23.818;2022-11-14T02:15:19;95105.19;;;-0.01;100.00
40384;BME280;26097;42.366;23.818;2022-11-14T02:18:19;95103.28;;;0.09;100.00
40384;BME280;26097;42.366;23.818;2022-11-14T02:21:20;95097.44;;;0.03;100.00
40384;BME280;26097;42.366;23.818;2022-11-14T02:24:20;95095.72;;;0.03;100.00
40384;BME280;26097;42.366;23.818;2022-11-14T02:27:20;95094.88;;;0.03;100.00
40384;BME280;26097;42.366;23.818;2022-11-14T02:30:21;95086.34;;;0.02;100.00
40384;BME280;26097;42.366;23.818;2022-11-14T02:33:22;95083.59;;;0.11;100.00
40384;BME280;26097;42.366;23.818;2022-11-14T02:36:22;95090.50;;;0.08;100.00
40384;BME280;26097;42.366;23.818;2022-11-14T02:39:23;95086.38;;;-0.01;100.00
40384;BME280;26097;42.366;23.818;2022-11-14T02:42:23;95087.50;;;-0.15;100.00
40384;BME280;26097;42.366;23.818;2022-11-14T02:45:24;95090.81;;;-0.11;100.00
40384;BME280;26097;42.366;23.818;2022-11-14T02:48:25;95082.25;;;-0.08;100.00
40384;BME280;26097;42.366;23.818;2022-11-14T02:51:25;95077.84;;;-0.02;100.00
40384;BME280;26097;42.366;23.818;2022-11-14T02:54:25;95078.88;;;-0.10;100.00
40384;BME280;26097;42.366;23.818;2022-11-14T02:57:26;95077.13;;;-0.08;100.00
40384;BME280;26097;42.366;23.818;2022-11-14T03:00:26;95082.22;;;-0.07;100.00
40384;BME280;26097;42.366;23.818;2022-11-14T03:03:27;95081.44;;;-0.12;100.00
40384;BME280;26097;42.366;23.818;2022-11-14T03:06:27;95082.19;;;-0.05;100.00
40384;BME280;26097;42.366;23.818;2022-11-14T03:09:27;95074.56;;;-0.08;100.00
40384;BME280;26097;42.366;23.818;2022-11-14T03:12:28;95071.31;;;-0.18;100.00
40384;BME280;26097;42.366;23.818;2022-11-14T03:15:28;95078.19;;;-0.19;100.00
40384;BME280;26097;42.366;23.818;2022-11-14T03:18:29;95071.94;;;-0.05;100.00
40384;BME280;26097;42.366;23.818;2022-11-14T03:21:29;95071.34;;;-0.20;100.00
40384;BME280;26097;42.366;23.818;2022-11-14T03:24:30;95068.00;;;-0.23;100.00
40384;BME280;26097;42.366;23.818;2022-11-14T03:27:30;95073.16;;;-0.25;100.00
40384;BME280;26097;42.366;23.818;2022-11-14T03:30:30;95078.22;;;-0.22;100.00
40384;BME280;26097;42.366;23.818;2022-11-14T03:33:31;95066.41;;;-0.31;100.00
40384;BME280;26097;42.366;23.818;2022-11-14T03:36:33;95072.44;;;-0.33;100.00
40384;BME280;26097;42.366;23.818;2022-11-14T03:39:33;95075.81;;;-0.31;100.00
40384;BME280;26097;42.366;23.818;2022-11-14T03:42:34;95079.19;;;-0.29;100.00
40384;BME280;26097;42.366;23.818;2022-11-14T03:45:36;95063.09;;;-0.36;100.00
40384;BME280;26097;42.366;23.818;2022-11-14T03:48:36;95073.34;;;-0.36;100.00
40384;BME280;26097;42.366;23.818;2022-11-14T03:51:37;95063.75;;;-0.26;100.00
40384;BME280;26097;42.366;23.818;2022-11-14T03:54:37;95065.59;;;-0.33;100.00
40384;BME280;26097;42.366;23.818;2022-11-14T03:57:38;95062.28;;;-0.39;100.00
40384;BME280;26097;42.366;23.818;2022-11-14T04:00:38;95060.78;;;-0.50;100.00
40384;BME280;26097;42.366;23.818;2022-11-14T04:03:38;95060.72;;;-0.47;100.00
40384;BME280;26097;42.366;23.818;2022-11-14T04:06:39;95059.72;;;-0.38;100.00
40384;BME280;26097;42.366;23.818;2022-11-14T04:09:39;95055.25;;;-0.28;100.00
40384;BME280;26097;42.366;23.818;2022-11-14T04:12:40;95063.72;;;-0.23;100.00
40384;BME280;26097;42.366;23.818;2022-11-14T04:15:40;95058.75;;;-0.32;100.00
40384;BME280;26097;42.366;23.818;2022-11-14T04:18:41;95053.81;;;-0.43;100.00
40384;BME280;26097;42.366;23.818;2022-11-14T04:21:41;95067.59;;;-0.49;100.00
40384;BME280;26097;42.366;23.818;2022-11-14T04:24:41;95059.81;;;-0.44;100.00
40384;BME280;26097;42.366;23.818;2022-11-14T04:27:42;95061.44;;;-0.38;100.00
40384;BME280;26097;42.366;23.818;2022-11-14T04:30:43;95061.47;;;-0.40;100.00
40384;BME280;26097;42.366;23.818;2022-11-14T04:33:44;95060.47;;;-0.33;100.00
40384;BME280;26097;42.366;23.818;2022-11-14T04:36:44;95062.81;;;-0.20;100.00
40384;BME280;26097;42.366;23.818;2022-11-14T04:39:45;95061.88;;;-0.15;100.00
40384;BME280;26097;42.366;23.818;2022-11-14T04:42:45;95069.69;;;-0.24;100.00
40384;BME280;26097;42.366;23.818;2022-11-14T04:45:46;95066.59;;;-0.40;100.00
40384;BME280;26097;42.366;23.818;2022-11-14T04:48:46;95066.41;;;-0.31;100.00
40384;BME280;26097;42.366;23.818;2022-11-14T04:51:47;95065.56;;;-0.31;100.00
40384;BME280;26097;42.366;23.818;2022-11-14T04:54:47;95071.69;;;-0.38;100.00
40384;BME280;26097;42.366;23.818;2022-11-14T04:57:53;95069.13;;;-0.40;100.00
40384;BME280;26097;42.366;23.818;2022-11-14T05:00:54;95079.31;;;-0.35;100.00
40384;BME280;26097;42.366;23.818;2022-11-14T05:03:57;95068.03;;;-0.25;100.00
40384;BME280;26097;42.366;23.818;2022-11-14T05:06:57;95079.09;;;-0.23;100.00
40384;BME280;26097;42.366;23.818;2022-11-14T05:09:57;95074.81;;;-0.22;100.00
40384;BME280;26097;42.366;23.818;2022-11-14T05:12:58;95069.69;;;-0.22;100.00
40384;BME280;26097;42.366;23.818;2022-11-14T05:15:59;95075.69;;;-0.25;100.00
40384;BME280;26097;42.366;23.818;2022-11-14T05:18:59;95077.50;;;-0.30;100.00
40384;BME280;26097;42.366;23.818;2022-11-14T05:22:00;95080.81;;;-0.25;100.00
40384;BME280;26097;42.366;23.818;2022-11-14T05:25:00;95073.06;;;-0.19;100.00
40384;BME280;26097;42.366;23.818;2022-11-14T05:28:00;95080.63;;;-0.12;100.00
40384;BME280;26097;42.366;23.818;2022-11-14T05:31:11;95079.69;;;-0.10;100.00
40384;BME280;26097;42.366;23.818;2022-11-14T05:34:12;95077.25;;;-0.15;100.00
40384;BME280;26097;42.366;23.818;2022-11-14T05:37:13;95072.88;;;-0.11;100.00
40384;BME280;26097;42.366;23.818;2022-11-14T05:40:14;95072.00;;;-0.08;100.00
40384;BME280;26097;42.366;23.818;2022-11-14T05:43:16;95072.81;;;-0.06;100.00
40384;BME280;26097;42.366;23.818;2022-11-14T05:46:16;95076.19;;;-0.04;100.00
40384;BME280;26097;42.366;23.818;2022-11-14T05:49:16;95089.66;;;0.07;100.00
40384;BME280;26097;42.366;23.818;2022-11-14T05:52:17;95086.97;;;0.15;100.00
40384;BME280;26097;42.366;23.818;2022-11-14T05:55:17;95095.47;;;0.17;100.00
40384;BME280;26097;42.366;23.818;2022-11-14T05:58:18;95103.75;;;0.30;100.00
40384;BME280;26097;42.366;23.818;2022-11-14T06:01:18;95093.44;;;0.33;100.00
40384;BME280;26097;42.366;23.818;2022-11-14T06:04:19;95095.94;;;0.36;100.00
40384;BME280;26097;42.366;23.818;2022-11-14T06:07:19;95087.13;;;0.48;100.00
40384;BME280;26097;42.366;23.818;2022-11-14T06:10:20;95099.56;;;0.68;100.00
40384;BME280;26097;42.366;23.818;2022-11-14T06:13:20;95101.03;;;0.80;100.00
40384;BME280;26097;42.366;23.818;2022-11-14T06:16:23;95091.34;;;0.93;100.00
40384;BME280;26097;42.366;23.818;2022-11-14T06:19:23;95091.91;;;1.06;100.00
40384;BME280;26097;42.366;23.818;2022-11-14T06:22:24;95093.38;;;1.18;100.00
40384;BME280;26097;42.366;23.818;2022-11-14T06:25:24;95090.34;;;1.37;100.00
40384;BME280;26097;42.366;23.818;2022-11-14T06:28:25;95085.72;;;1.51;100.00
40384;BME280;26097;42.366;23.818;2022-11-14T06:31:25;95093.69;;;1.77;100.00
40384;BME280;26097;42.366;23.818;2022-11-14T06:34:26;95092.53;;;1.89;100.00
40384;BME280;26097;42.366;23.818;2022-11-14T06:37:26;95095.75;;;1.97;100.00
40384;BME280;26097;42.366;23.818;2022-11-14T06:40:27;95097.91;;;2.12;100.00
40384;BME280;26097;42.366;23.818;2022-11-14T06:43:27;95095.78;;;2.28;100.00
40384;BME280;26097;42.366;23.818;2022-11-14T06:46:28;95096.28;;;2.41;100.00
40384;BME280;26097;42.366;23.818;2022-11-14T06:49:28;95098.50;;;2.54;100.00
40384;BME280;26097;42.366;23.818;2022-11-14T06:52:29;95097.25;;;2.67;100.00
40384;BME280;26097;42.366;23.818;2022-11-14T06:55:30;95098.53;;;2.82;100.00
40384;BME280;26097;42.366;23.818;2022-11-14T06:58:32;95093.75;;;3.00;100.00
40384;BME280;26097;42.366;23.818;2022-11-14T07:01:33;95082.84;;;3.20;100.00
40384;BME280;26097;42.366;23.818;2022-11-14T07:04:34;95090.88;;;3.38;100.00
40384;BME280;26097;42.366;23.818;2022-11-14T07:07:34;95080.28;;;3.47;100.00
40384;BME280;26097;42.366;23.818;2022-11-14T07:10:35;95068.81;;;3.56;100.00
40384;BME280;26097;42.366;23.818;2022-11-14T07:13:35;95069.25;;;3.69;100.00
40384;BME280;26097;42.366;23.818;2022-11-14T07:16:36;95071.44;;;3.81;100.00
40384;BME280;26097;42.366;23.818;2022-11-14T07:19:36;95072.72;;;3.95;100.00
40384;BME280;26097;42.366;23.818;2022-11-14T07:22:37;95075.72;;;4.08;100.00
40384;BME280;26097;42.366;23.818;2022-11-14T07:25:37;95066.59;;;4.23;100.00
40384;BME280;26097;42.366;23.818;2022-11-14T07:28:40;95077.19;;;4.39;100.00
40384;BME280;26097;42.366;23.818;2022-11-14T07:31:41;95070.66;;;4.54;100.00
40384;BME280;26097;42.366;23.818;2022-11-14T07:34:41;95072.78;;;4.66;100.00
40384;BME280;26097;42.366;23.818;2022-11-14T07:37:41;95064.63;;;4.77;100.00
40384;BME280;26097;42.366;23.818;2022-11-14T07:40:42;95065.25;;;4.84;100.00
40384;BME280;26097;42.366;23.818;2022-11-14T07:43:42;95064.78;;;4.96;100.00
40384;BME280;26097;42.366;23.818;2022-11-14T07:46:42;95061.63;;;5.12;100.00
40384;BME280;26097;42.366;23.818;2022-11-14T07:49:43;95055.19;;;5.22;100.00
40384;BME280;26097;42.366;23.818;2022-11-14T07:52:49;95062.50;;;5.33;100.00
40384;BME280;26097;42.366;23.818;2022-11-14T07:55:49;95055.31;;;5.41;100.00
40384;BME280;26097;42.366;23.818;2022-11-14T07:58:50;95052.38;;;5.49;100.00
40384;BME280;26097;42.366;23.818;2022-11-14T08:01:50;95047.03;;;5.54;100.00
40384;BME280;26097;42.366;23.818;2022-11-14T08:04:51;95049.41;;;5.60;100.00
40384;BME280;26097;42.366;23.818;2022-11-14T08:07:51;95055.81;;;5.72;100.00
40384;BME280;26097;42.366;23.818;2022-11-14T08:10:55;95052.78;;;5.83;100.00
40384;BME280;26097;42.366;23.818;2022-11-14T08:13:56;95050.63;;;5.93;100.00
40384;BME280;26097;42.366;23.818;2022-11-14T08:16:56;95050.38;;;5.99;100.00
40384;BME280;26097;42.366;23.818;2022-11-14T08:19:57;95049.88;;;6.11;100.00
40384;BME280;26097;42.366;23.818;2022-11-14T08:23:00;95049.63;;;6.18;100.00
40384;BME280;26097;42.366;23.818;2022-11-14T08:26:01;95047.31;;;6.31;100.00
40384;BME280;26097;42.366;23.818;2022-11-14T08:29:02;95049.38;;;6.43;100.00
40384;BME280;26097;42.366;23.818;2022-11-14T08:32:03;95049.81;;;6.53;100.00
40384;BME280;26097;42.366;23.818;2022-11-14T08:35:03;95037.34;;;6.61;100.00
40384;BME280;26097;42.366;23.818;2022-11-14T08:38:04;95039.53;;;6.70;100.00
40384;BME280;26097;42.366;23.818;2022-11-14T08:41:04;95040.88;;;6.79;100.00
40384;BME280;26097;42.366;23.818;2022-11-14T08:44:04;95035.97;;;6.92;100.00
40384;BME280;26097;42.366;23.818;2022-11-14T08:47:05;95032.00;;;7.03;100.00
40384;BME280;26097;42.366;23.818;2022-11-14T08:50:05;95033.13;;;7.16;100.00
40384;BME280;26097;42.366;23.818;2022-11-14T08:53:06;95028.91;;;7.33;100.00
40384;BME280;26097;42.366;23.818;2022-11-14T08:56:08;95023.81;;;7.49;100.00
40384;BME280;26097;42.366;23.818;2022-11-14T08:59:09;95018.09;;;7.60;100.00
40384;BME280;26097;42.366;23.818;2022-11-14T09:02:10;95019.06;;;7.75;100.00
40384;BME280;26097;42.366;23.818;2022-11-14T09:05:11;95006.94;;;7.93;100.00
40384;BME280;26097;42.366;23.818;2022-11-14T09:08:12;95007.09;;;8.07;100.00
40384;BME280;26097;42.366;23.818;2022-11-14T09:11:12;95005.50;;;8.21;100.00
40384;BME280;26097;42.366;23.818;2022-11-14T09:14:12;95005.63;;;8.35;100.00
40384;BME280;26097;42.366;23.818;2022-11-14T09:17:13;95003.19;;;8.50;100.00
40384;BME280;26097;42.366;23.818;2022-11-14T09:20:13;95003.78;;;8.55;100.00
40384;BME280;26097;42.366;23.818;2022-11-14T09:23:14;94999.09;;;8.62;100.00
40384;BME280;26097;42.366;23.818;2022-11-14T09:26:14;94993.06;;;8.77;100.00
40384;BME280;26097;42.366;23.818;2022-11-14T09:29:15;94991.75;;;8.86;100.00
40384;BME280;26097;42.366;23.818;2022-11-14T09:32:18;94991.03;;;8.98;100.00
40384;BME280;26097;42.366;23.818;2022-11-14T09:35:18;94982.16;;;9.03;100.00
40384;BME280;26097;42.366;23.818;2022-11-14T09:38:18;94980.78;;;9.11;100.00
40384;BME280;26097;42.366;23.818;2022-11-14T09:48:21;94976.22;;;9.47;100.00
40384;BME280;26097;42.366;23.818;2022-11-14T09:51:32;94966.75;;;9.61;100.00
40384;BME280;26097;42.366;23.818;2022-11-14T09:54:55;94962.81;;;9.84;100.00
40384;BME280;26097;42.366;23.818;2022-11-14T09:57:56;94956.91;;;9.96;100.00
40384;BME280;26097;42.366;23.818;2022-11-14T10:01:07;94959.03;;;10.04;100.00
40384;BME280;26097;42.366;23.818;2022-11-14T10:10:52;94944.06;;;10.51;100.00
40384;BME280;26097;42.366;23.818;2022-11-14T10:20:45;94932.41;;;10.71;100.00
40384;BME280;26097;42.366;23.818;2022-11-14T10:27:32;94931.22;;;10.90;100.00
40384;BME280;26097;42.366;23.818;2022-11-14T10:30:43;94926.06;;;11.03;100.00
40384;BME280;26097;42.366;23.818;2022-11-14T10:33:55;94920.56;;;11.08;100.00
40384;BME280;26097;42.366;23.818;2022-11-14T10:37:19;94914.00;;;11.15;100.00
40384;BME280;26097;42.366;23.818;2022-11-14T10:40:25;94912.06;;;11.32;100.00
40384;BME280;26097;42.366;23.818;2022-11-14T10:46:32;94908.22;;;11.50;100.00
40384;BME280;26097;42.366;23.818;2022-11-14T10:49:35;94899.03;;;11.57;100.00
40384;BME280;26097;42.366;23.818;2022-11-14T10:52:40;94888.41;;;11.61;100.00
40384;BME280;26097;42.366;23.818;2022-11-14T10:55:45;94901.78;;;11.69;100.00
40384;BME280;26097;42.366;23.818;2022-11-14T10:58:49;94884.13;;;11.85;100.00
40384;BME280;26097;42.366;23.818;2022-11-14T11:04:49;94874.00;;;12.07;100.00
40384;BME280;26097;42.366;23.818;2022-11-14T11:07:51;94876.41;;;12.10;100.00
40384;BME280;26097;42.366;23.818;2022-11-14T11:11:13;94874.38;;;12.26;100.00
40384;BME280;26097;42.366;23.818;2022-11-14T11:14:29;94874.38;;;12.39;100.00
40384;BME280;26097;42.366;23.818;2022-11-14T11:17:30;94865.16;;;12.47;100.00
40384;BME280;26097;42.366;23.818;2022-11-14T11:20:32;94859.59;;;12.51;100.00
40384;BME280;26097;42.366;23.818;2022-11-14T11:23:33;94854.75;;;12.58;100.00
40384;BME280;26097;42.366;23.818;2022-11-14T11:26:34;94855.03;;;12.66;100.00
40384;BME280;26097;42.366;23.818;2022-11-14T11:29:34;94843.97;;;12.87;100.00
40384;BME280;26097;42.366;23.818;2022-11-14T11:32:35;94846.03;;;12.95;100.00
40384;BME280;26097;42.366;23.818;2022-11-14T11:35:35;94844.63;;;13.02;100.00
40384;BME280;26097;42.366;23.818;2022-11-14T11:38:36;94846.06;;;13.06;100.00
40384;BME280;26097;42.366;23.818;2022-11-14T11:41:38;94846.66;;;13.10;100.00
40384;BME280;26097;42.366;23.818;2022-11-14T11:44:47;94839.75;;;13.09;100.00
40384;BME280;26097;42.366;23.818;2022-11-14T11:50:59;94836.13;;;13.23;100.00
40384;BME280;26097;42.366;23.818;2022-11-14T11:54:13;94834.59;;;13.32;100.00
40384;BME280;26097;42.366;23.818;2022-11-14T11:57:16;94838.78;;;13.34;100.00
40384;BME280;26097;42.366;23.818;2022-11-14T12:00:19;94833.63;;;13.21;100.00
40384;BME280;26097;42.366;23.818;2022-11-14T12:03:20;94837.72;;;13.37;100.00
40384;BME280;26097;42.366;23.818;2022-11-14T12:06:23;94832.16;;;13.06;100.00
40384;BME280;26097;42.366;23.818;2022-11-14T12:09:36;94837.19;;;13.20;100.00
40384;BME280;26097;42.366;23.818;2022-11-14T12:25:47;94822.63;;;13.05;100.00
40384;BME280;26097;42.366;23.818;2022-11-14T12:32:09;94828.13;;;13.13;100.00
40384;BME280;26097;42.366;23.818;2022-11-14T12:35:19;94814.72;;;12.93;100.00
40384;BME280;26097;42.366;23.818;2022-11-14T12:38:22;94821.78;;;13.04;100.00
40384;BME280;26097;42.366;23.818;2022-11-14T12:41:28;94822.53;;;12.82;100.00
40384;BME280;26097;42.366;23.818;2022-11-14T12:44:31;94822.78;;;12.79;100.00
40384;BME280;26097;42.366;23.818;2022-11-14T12:47:31;94820.47;;;12.74;100.00
40384;BME280;26097;42.366;23.818;2022-11-14T12:50:41;94819.63;;;12.74;100.00
40384;BME280;26097;42.366;23.818;2022-11-14T12:53:42;94818.50;;;12.78;100.00
40384;BME280;26097;42.366;23.818;2022-11-14T12:56:50;94814.00;;;12.91;100.00
40384;BME280;26097;42.366;23.818;2022-11-14T13:00:00;94818.91;;;12.96;100.00
40384;BME280;26097;42.366;23.818;2022-11-14T13:06:37;94814.06;;;13.03;100.00
40384;BME280;26097;42.366;23.818;2022-11-14T13:13:10;94818.72;;;12.50;100.00
40384;BME280;26097;42.366;23.818;2022-11-14T13:16:30;94814.91;;;12.54;100.00
40384;BME280;26097;42.366;23.818;2022-11-14T13:19:49;94818.63;;;12.39;100.00
40384;BME280;26097;42.366;23.818;2022-11-14T13:35:47;94822.59;;;12.07;100.00
40384;BME280;26097;42.366;23.818;2022-11-14T13:42:32;94820.06;;;11.93;100.00
40384;BME280;26097;42.366;23.818;2022-11-14T13:52:29;94813.94;;;11.68;100.00
40384;BME280;26097;42.366;23.818;2022-11-14T13:59:18;94813.09;;;11.28;100.00
40384;BME280;26097;42.366;23.818;2022-11-14T14:02:37;94814.97;;;11.26;100.00
40384;BME280;26097;42.366;23.818;2022-11-14T14:08:54;94816.84;;;11.11;100.00
40384;BME280;26097;42.366;23.818;2022-11-14T14:18:57;94820.81;;;10.77;100.00
40384;BME280;26097;42.366;23.818;2022-11-14T14:31:40;94812.41;;;10.17;100.00
40384;BME280;26097;42.366;23.818;2022-11-14T14:34:41;94823.59;;;10.04;100.00
40384;BME280;26097;42.366;23.818;2022-11-14T14:37:49;94818.00;;;9.81;100.00
40384;BME280;26097;42.366;23.818;2022-11-14T14:40:53;94818.59;;;9.57;100.00
40384;BME280;26097;42.366;23.818;2022-11-14T14:43:55;94819.50;;;9.27;100.00
40384;BME280;26097;42.366;23.818;2022-11-14T14:46:55;94823.69;;;8.99;100.00
40384;BME280;26097;42.366;23.818;2022-11-14T14:49:56;94821.66;;;8.74;100.00
40384;BME280;26097;42.366;23.818;2022-11-14T14:52:58;94820.69;;;8.44;100.00
40384;BME280;26097;42.366;23.818;2022-11-14T14:56:04;94833.78;;;8.11;100.00
40384;BME280;26097;42.366;23.818;2022-11-14T14:59:21;94833.06;;;7.75;100.00
40384;BME280;26097;42.366;23.818;2022-11-14T15:02:24;94835.13;;;7.52;100.00
40384;BME280;26097;42.366;23.818;2022-11-14T15:05:27;94827.44;;;7.33;100.00
40384;BME280;26097;42.366;23.818;2022-11-14T15:08:30;94827.88;;;7.08;100.00
40384;BME280;26097;42.366;23.818;2022-11-14T15:11:35;94829.81;;;6.85;100.00
40384;BME280;26097;42.366;23.818;2022-11-14T15:14:38;94838.81;;;6.60;100.00
40384;BME280;26097;42.366;23.818;2022-11-14T15:17:39;94828.50;;;6.41;100.00
40384;BME280;26097;42.366;23.818;2022-11-14T15:20:40;94836.91;;;6.27;100.00
40384;BME280;26097;42.366;23.818;2022-11-14T15:23:40;94845.00;;;6.00;100.00
40384;BME280;26097;42.366;23.818;2022-11-14T15:26:45;94837.16;;;5.82;100.00
40384;BME280;26097;42.366;23.818;2022-11-14T15:29:49;94845.13;;;5.58;100.00
40384;BME280;26097;42.366;23.818;2022-11-14T15:32:53;94850.06;;;5.44;100.00
40384;BME280;26097;42.366;23.818;2022-11-14T15:36:11;94846.59;;;5.24;100.00
40384;BME280;26097;42.366;23.818;2022-11-14T15:39:39;94848.09;;;5.09;100.00
40384;BME280;26097;42.366;23.818;2022-11-14T15:42:39;94843.09;;;4.84;100.00
40384;BME280;26097;42.366;23.818;2022-11-14T15:45:40;94853.69;;;4.78;100.00
40384;BME280;26097;42.366;23.818;2022-11-14T15:48:40;94843.97;;;4.62;100.00
40384;BME280;26097;42.366;23.818;2022-11-14T15:51:59;94851.19;;;4.54;100.00
40384;BME280;26097;42.366;23.818;2022-11-14T15:55:01;94848.84;;;4.48;100.00
40384;BME280;26097;42.366;23.818;2022-11-14T15:58:08;94855.28;;;4.37;100.00
40384;BME280;26097;42.366;23.818;2022-11-14T16:01:20;94848.91;;;4.24;100.00
40384;BME280;26097;42.366;23.818;2022-11-14T16:04:26;94852.75;;;4.13;100.00
40384;BME280;26097;42.366;23.818;2022-11-14T16:07:28;94859.31;;;3.98;100.00
40384;BME280;26097;42.366;23.818;2022-11-14T16:10:28;94861.19;;;3.95;100.00
40384;BME280;26097;42.366;23.818;2022-11-14T16:13:29;94863.38;;;3.82;100.00
40384;BME280;26097;42.366;23.818;2022-11-14T16:16:29;94859.50;;;3.70;100.00
40384;BME280;26097;42.366;23.818;2022-11-14T16:19:30;94860.75;;;3.60;100.00
40384;BME280;26097;42.366;23.818;2022-11-14T16:22:30;94857.31;;;3.59;100.00
40384;BME280;26097;42.366;23.818;2022-11-14T16:25:31;94856.50;;;3.59;100.00
40384;BME280;26097;42.366;23.818;2022-11-14T16:28:32;94850.72;;;3.52;100.00
40384;BME280;26097;42.366;23.818;2022-11-14T16:31:32;94856.25;;;3.41;100.00
40384;BME280;26097;42.366;23.818;2022-11-14T16:34:33;94862.41;;;3.37;100.00
40384;BME280;26097;42.366;23.818;2022-11-14T16:37:33;94864.28;;;3.32;100.00
40384;BME280;26097;42.366;23.818;2022-11-14T16:40:33;94864.53;;;3.25;100.00
40384;BME280;26097;42.366;23.818;2022-11-14T16:43:34;94864.53;;;3.25;100.00
40384;BME280;26097;42.366;23.818;2022-11-14T16:46:37;94867.22;;;3.22;100.00
40384;BME280;26097;42.366;23.818;2022-11-14T16:49:37;94860.63;;;3.13;100.00
40384;BME280;26097;42.366;23.818;2022-11-14T16:52:38;94866.03;;;3.06;100.00
40384;BME280;26097;42.366;23.818;2022-11-14T16:55:43;94870.41;;;3.04;100.00
40384;BME280;26097;42.366;23.818;2022-11-14T16:58:44;94858.53;;;2.99;100.00
40384;BME280;26097;42.366;23.818;2022-11-14T17:01:44;94859.69;;;2.91;100.00
40384;BME280;26097;42.366;23.818;2022-11-14T17:04:45;94864.88;;;2.89;100.00
40384;BME280;26097;42.366;23.818;2022-11-14T17:07:46;94864.09;;;2.87;100.00
40384;BME280;26097;42.366;23.818;2022-11-14T17:10:46;94874.59;;;2.81;100.00
40384;BME280;26097;42.366;23.818;2022-11-14T17:13:47;94878.16;;;2.77;100.00
40384;BME280;26097;42.366;23.818;2022-11-14T17:16:47;94873.91;;;2.76;100.00
40384;BME280;26097;42.366;23.818;2022-11-14T17:19:48;94875.75;;;2.72;100.00
40384;BME280;26097;42.366;23.818;2022-11-14T17:22:49;94875.06;;;2.67;100.00
40384;BME280;26097;42.366;23.818;2022-11-14T17:25:49;94875.22;;;2.61;100.00
40384;BME280;26097;42.366;23.818;2022-11-14T17:28:49;94871.94;;;2.57;100.00
40384;BME280;26097;42.366;23.818;2022-11-14T17:31:50;94870.44;;;2.50;100.00